Time;durP1;ratioP1;P1;durP2;ratioP2;P2;SDS_P1;SDS_P2;PMS_P1;PMS_P2;Temp;Humidity;BMP_temperature;BMP_pressure;BME280_temperature;BME280_humidity;BME280_pressure;Samples;Min_cycle;Max_cycle;Signal;HPM_P1;HPM_P2
2022/12/25 00:01:52;;;;;;;3.00;1.80;;;;;;;;;;5008317;28;20440;-55
2022/12/25 00:04:18;;;;;;;2.10;1.43;;;;;;;;;;5018949;28;20461;-56
2022/12/25 00:06:44;;;;;;;2.70;1.50;;;;;;;;;;4982132;28;20605;-56
2022/12/25 00:09:10;;;;;;;2.60;1.73;;;;;;;;;;5021839;28;20466;-56
2022/12/25 00:11:36;;;;;;;2.97;1.60;;;;;;;;;;4984806;28;21155;-56
2022/12/25 00:14:02;;;;;;;3.40;2.10;;;;;;;;;;5015536;28;20438;-57
2022/12/25 00:16:29;;;;;;;4.70;2.20;;;;;;;;;;5012198;28;20957;-56
2022/12/25 00:18:55;;;;;;;2.80;1.90;;;;;;;;;;5021777;28;20545;-55
2022/12/25 00:21:21;;;;;;;2.50;1.90;;;;;;;;;;5017951;28;20436;-54
2022/12/25 00:23:47;;;;;;;2.13;1.63;;;;;;;;;;5018651;28;20447;-56
2022/12/25 00:26:15;;;;;;;2.17;1.60;;;;;;;;;;4989773;28;20467;-55
2022/12/25 00:28:41;;;;;;;5.77;2.00;;;;;;;;;;5004945;28;22617;-56
2022/12/25 00:31:08;;;;;;;3.27;1.73;;;;;;;;;;5004764;28;20469;-56
2022/12/25 00:33:35;;;;;;;2.40;1.50;;;;;;;;;;5003583;28;20956;-55
2022/12/25 00:36:01;;;;;;;2.00;1.30;;;;;;;;;;5000957;28;20427;-56
2022/12/25 00:38:27;;;;;;;2.60;1.90;;;;;;;;;;5000744;28;20589;-55
2022/12/25 00:40:53;;;;;;;4.63;1.50;;;;;;;;;;5018528;28;20508;-55
2022/12/25 00:43:19;;;;;;;4.70;1.93;;;;;;;;;;4994103;28;20466;-55
2022/12/25 00:45:53;;;;;;;2.27;1.30;;;;;;;;;;5019402;28;20485;-55
2022/12/25 00:48:19;;;;;;;2.20;1.57;;;;;;;;;;5016463;28;20471;-56
2022/12/25 00:50:45;;;;;;;2.30;1.80;;;;;;;;;;5013901;28;20462;-56
2022/12/25 00:53:11;;;;;;;2.83;2.00;;;;;;;;;;5019322;28;20461;-55
2022/12/25 00:55:37;;;;;;;2.13;1.50;;;;;;;;;;4992341;28;20451;-55
2022/12/25 00:58:03;;;;;;;4.40;1.80;;;;;;;;;;5021318;28;21572;-54
2022/12/25 01:00:29;;;;;;;2.70;1.80;;;;;;;;;;4970947;28;21818;-54
2022/12/25 01:02:55;;;;;;;2.30;1.60;;;;;;;;;;5023709;28;20951;-56
2022/12/25 01:05:21;;;;;;;4.70;1.70;;;;;;;;;;5000937;28;20439;-56
2022/12/25 01:07:47;;;;;;;5.43;1.90;;;;;;;;;;4989013;28;20479;-56
2022/12/25 01:10:22;;;;;;;2.40;1.97;;;;;;;;;;5010739;28;20436;-55
2022/12/25 01:12:48;;;;;;;2.53;1.60;;;;;;;;;;4985238;28;20435;-55
2022/12/25 01:15:14;;;;;;;2.63;1.70;;;;;;;;;;4984718;28;20438;-56
2022/12/25 01:17:40;;;;;;;1.73;1.60;;;;;;;;;;5009167;28;20428;-55
2022/12/25 01:20:07;;;;;;;2.50;1.67;;;;;;;;;;5004868;28;20480;-54
2022/12/25 01:22:33;;;;;;;3.50;1.77;;;;;;;;;;5010401;28;20448;-54
2022/12/25 01:24:59;;;;;;;4.40;2.13;;;;;;;;;;4990959;28;20513;-54
2022/12/25 01:27:25;;;;;;;4.50;2.43;;;;;;;;;;5023096;28;20475;-55
2022/12/25 01:29:51;;;;;;;3.70;2.03;;;;;;;;;;5008626;28;20516;-56
2022/12/25 01:32:17;;;;;;;3.13;1.90;;;;;;;;;;5012053;28;20951;-55
2022/12/25 01:34:43;;;;;;;2.90;1.90;;;;;;;;;;4984868;28;20432;-57
2022/12/25 01:37:10;;;;;;;2.10;1.90;;;;;;;;;;4999170;28;20456;-56
2022/12/25 01:39:36;;;;;;;4.57;2.27;;;;;;;;;;4999980;28;20474;-55
2022/12/25 01:42:02;;;;;;;2.93;1.90;;;;;;;;;;5003725;28;20451;-56
2022/12/25 01:44:37;;;;;;;3.47;2.00;;;;;;;;;;4999855;28;21279;-55
2022/12/25 01:47:03;;;;;;;6.00;2.30;;;;;;;;;;5006779;28;20627;-56
2022/12/25 01:49:29;;;;;;;2.93;2.13;;;;;;;;;;5015665;28;20439;-54
2022/12/25 01:51:56;;;;;;;2.87;2.13;;;;;;;;;;5012083;28;20444;-54
2022/12/25 01:54:27;;;;;;;3.73;2.30;;;;;;;;;;5005558;28;20945;-56
2022/12/25 01:56:53;;;;;;;2.70;1.27;;;;;;;;;;4995551;28;20979;-56
2022/12/25 01:59:19;;;;;;;2.23;1.97;;;;;;;;;;5011028;28;20435;-55
2022/12/25 02:01:45;;;;;;;6.97;2.10;;;;;;;;;;5013792;28;20801;-53
2022/12/25 02:04:15;;;;;;;3.97;2.23;;;;;;;;;;5025069;28;20423;-57
2022/12/25 02:06:41;;;;;;;3.67;2.47;;;;;;;;;;5015503;28;20568;-55
2022/12/25 02:09:07;;;;;;;3.20;2.20;;;;;;;;;;5029893;28;20890;-56
2022/12/25 02:14:18;;;;;;;3.40;1.80;;;;;;;;;;5008281;28;20518;-54
2022/12/25 02:16:44;;;;;;;4.17;2.40;;;;;;;;;;5000525;28;20431;-56
2022/12/25 02:19:20;;;;;;;4.60;2.17;;;;;;;;;;5037789;28;20438;-56
2022/12/25 02:21:51;;;;;;;2.53;2.00;;;;;;;;;;5001296;28;20447;-56
2022/12/25 02:24:33;;;;;;;5.33;2.67;;;;;;;;;;5008130;28;20458;-56
2022/12/25 02:27:14;;;;;;;3.80;2.20;;;;;;;;;;5002106;28;20583;-54
2022/12/25 02:29:53;;;;;;;5.30;2.03;;;;;;;;;;4994524;28;20450;-58
2022/12/25 02:32:26;;;;;;;2.97;2.00;;;;;;;;;;5021393;28;20432;-56
2022/12/25 02:34:55;;;;;;;4.00;1.90;;;;;;;;;;5015606;28;20479;-56
2022/12/25 02:37:23;;;;;;;2.40;2.13;;;;;;;;;;5019503;28;20436;-55
2022/12/25 02:39:56;;;;;;;3.30;1.97;;;;;;;;;;5017649;28;20511;-56
2022/12/25 03:07:23;;;;;;;4.80;2.00;;;;;;;;;;4993333;28;20493;-55
2022/12/25 03:12:59;;;;;;;3.13;2.47;;;;;;;;;;4997414;28;20552;-55
2022/12/25 03:18:10;;;;;;;3.23;2.37;;;;;;;;;;4986111;28;20801;-55
2022/12/25 03:28:51;;;;;;;4.90;2.90;;;;;;;;;;4993845;28;20454;-56
2022/12/25 03:31:37;;;;;;;7.67;4.53;;;;;;;;;;5011960;28;20440;-56
2022/12/25 03:37:14;;;;;;;6.13;2.90;;;;;;;;;;4999118;28;20532;-57
2022/12/25 03:43:22;;;;;;;3.67;3.00;;;;;;;;;;5008481;28;20501;-55
2022/12/25 04:38:01;;;;;;;3.20;2.80;;;;;;;;;;4984274;28;20455;-55
2022/12/25 04:40:27;;;;;;;3.37;2.80;;;;;;;;;;5019599;28;20447;-56
2022/12/25 04:42:53;;;;;;;5.70;3.10;;;;;;;;;;4990756;28;20220;-55
2022/12/25 04:45:19;;;;;;;3.87;2.57;;;;;;;;;;5015268;28;21660;-55
2022/12/25 04:47:44;;;;;;;5.00;3.30;;;;;;;;;;5005268;28;21015;-55
2022/12/25 04:50:10;;;;;;;6.03;3.23;;;;;;;;;;5014041;28;20465;-54
2022/12/25 04:52:37;;;;;;;6.93;3.77;;;;;;;;;;4993574;28;20447;-55
2022/12/25 04:55:03;;;;;;;4.63;3.40;;;;;;;;;;5014695;28;20880;-55
2022/12/25 04:57:29;;;;;;;7.07;3.80;;;;;;;;;;4974766;28;20456;-56
2022/12/25 04:59:55;;;;;;;3.10;2.57;;;;;;;;;;5016750;28;20453;-55
2022/12/25 05:02:21;;;;;;;4.70;3.40;;;;;;;;;;5011686;28;20497;-55
2022/12/25 05:04:47;;;;;;;3.47;3.07;;;;;;;;;;5017764;28;20446;-54
2022/12/25 05:07:13;;;;;;;4.73;3.07;;;;;;;;;;4992929;28;20681;-56
2022/12/25 05:09:40;;;;;;;7.70;3.70;;;;;;;;;;5019999;28;20184;-56
2022/12/25 05:12:06;;;;;;;4.00;3.60;;;;;;;;;;4990870;28;20460;-54
2022/12/25 05:14:32;;;;;;;4.17;3.27;;;;;;;;;;5012158;28;20436;-54
2022/12/25 05:16:58;;;;;;;4.40;3.30;;;;;;;;;;4992578;28;20458;-55
2022/12/25 05:19:25;;;;;;;4.10;3.00;;;;;;;;;;5018867;28;20928;-55
2022/12/25 05:21:51;;;;;;;5.07;4.20;;;;;;;;;;4993211;28;20833;-56
2022/12/25 05:24:17;;;;;;;10.00;3.60;;;;;;;;;;5015864;28;20443;-56
2022/12/25 05:26:43;;;;;;;5.50;4.10;;;;;;;;;;5012373;28;20481;-55
2022/12/25 05:29:09;;;;;;;5.20;3.93;;;;;;;;;;5016967;28;20465;-56
2022/12/25 05:31:35;;;;;;;5.43;3.47;;;;;;;;;;4970186;28;20526;-56
2022/12/25 05:34:01;;;;;;;4.40;4.00;;;;;;;;;;5016773;28;20470;-55
2022/12/25 05:36:27;;;;;;;5.90;3.83;;;;;;;;;;5014239;28;20435;-56
2022/12/25 05:38:53;;;;;;;5.93;3.23;;;;;;;;;;4989246;28;20451;-55
2022/12/25 05:41:19;;;;;;;4.57;3.40;;;;;;;;;;4986421;28;20589;-57
2022/12/25 05:43:45;;;;;;;5.43;2.80;;;;;;;;;;5019223;28;20524;-55
2022/12/25 05:46:11;;;;;;;5.70;2.87;;;;;;;;;;4987282;28;20444;-56
2022/12/25 05:48:37;;;;;;;4.23;3.60;;;;;;;;;;5016173;28;20538;-55
2022/12/25 05:51:04;;;;;;;3.90;3.50;;;;;;;;;;5009232;28;20446;-55
2022/12/25 05:53:30;;;;;;;5.57;3.00;;;;;;;;;;5020091;28;20435;-55
2022/12/25 05:55:56;;;;;;;4.30;3.90;;;;;;;;;;4991540;28;20431;-55
2022/12/25 05:58:22;;;;;;;3.33;2.80;;;;;;;;;;5006303;28;20844;-55
2022/12/25 06:00:48;;;;;;;3.67;2.53;;;;;;;;;;4991905;28;21518;-56
2022/12/25 06:03:14;;;;;;;3.30;2.40;;;;;;;;;;5012900;28;20267;-55
2022/12/25 06:05:39;;;;;;;3.20;2.70;;;;;;;;;;4978414;28;20447;-56
2022/12/25 06:08:05;;;;;;;2.00;1.80;;;;;;;;;;5020717;28;20546;-55
2022/12/25 06:10:31;;;;;;;6.83;2.33;;;;;;;;;;4982635;28;20443;-55
2022/12/25 06:12:57;;;;;;;3.93;2.20;;;;;;;;;;5019335;28;20442;-55
2022/12/25 06:15:24;;;;;;;2.57;2.03;;;;;;;;;;4999293;28;20439;-55
2022/12/25 06:17:50;;;;;;;2.20;1.47;;;;;;;;;;5007177;28;20546;-55
2022/12/25 06:20:16;;;;;;;1.50;1.30;;;;;;;;;;5011029;28;20570;-55
2022/12/25 06:22:42;;;;;;;3.40;1.60;;;;;;;;;;5003086;28;20448;-54
2022/12/25 06:25:08;;;;;;;6.50;1.90;;;;;;;;;;5003743;28;20549;-55
2022/12/25 06:27:34;;;;;;;1.77;1.47;;;;;;;;;;5007341;28;20479;-55
2022/12/25 06:30:00;;;;;;;2.53;1.90;;;;;;;;;;5019950;28;21078;-57
2022/12/25 06:32:26;;;;;;;2.07;1.80;;;;;;;;;;5018028;28;20649;-54
2022/12/25 06:34:51;;;;;;;2.87;2.13;;;;;;;;;;5014962;28;20473;-55
2022/12/25 06:37:17;;;;;;;3.40;1.97;;;;;;;;;;5012679;28;20540;-55
2022/12/25 06:39:43;;;;;;;3.40;1.80;;;;;;;;;;5017961;28;20441;-56
2022/12/25 06:42:09;;;;;;;2.13;1.93;;;;;;;;;;4948842;28;20542;-55
2022/12/25 06:44:35;;;;;;;2.50;1.93;;;;;;;;;;5017387;28;20449;-56
2022/12/25 06:47:01;;;;;;;3.10;1.60;;;;;;;;;;4989230;28;20474;-56
2022/12/25 06:49:27;;;;;;;2.83;1.50;;;;;;;;;;5020166;28;20433;-54
2022/12/25 06:51:53;;;;;;;4.23;2.40;;;;;;;;;;5010458;28;20555;-55
2022/12/25 06:54:19;;;;;;;2.70;2.10;;;;;;;;;;5019144;28;20431;-56
2022/12/25 06:56:45;;;;;;;3.03;2.13;;;;;;;;;;4994381;28;20466;-55
2022/12/25 06:59:11;;;;;;;3.80;2.47;;;;;;;;;;5015581;28;20447;-55
2022/12/25 07:01:39;;;;;;;2.50;2.30;;;;;;;;;;5013353;28;20419;-56
2022/12/25 07:04:06;;;;;;;7.00;2.73;;;;;;;;;;5022460;28;20427;-56
2022/12/25 07:06:31;;;;;;;2.90;2.20;;;;;;;;;;5005355;28;20843;-57
2022/12/25 07:08:57;;;;;;;3.20;1.60;;;;;;;;;;5023750;28;20534;-57
2022/12/25 07:11:24;;;;;;;3.07;1.83;;;;;;;;;;4978642;28;20499;-56
2022/12/25 07:13:50;;;;;;;3.70;1.93;;;;;;;;;;4998622;28;20435;-57
2022/12/25 07:16:16;;;;;;;2.17;1.90;;;;;;;;;;5022254;28;20438;-58
2022/12/25 07:18:42;;;;;;;3.47;1.67;;;;;;;;;;4992383;28;20436;-55
2022/12/25 07:21:09;;;;;;;1.90;1.13;;;;;;;;;;5018792;28;20431;-58
2022/12/25 07:23:35;;;;;;;2.20;1.67;;;;;;;;;;5008139;28;20440;-59
2022/12/25 07:26:01;;;;;;;1.70;1.33;;;;;;;;;;5017683;28;20441;-58
2022/12/25 07:28:27;;;;;;;5.17;2.00;;;;;;;;;;4987165;28;20486;-58
2022/12/25 07:30:53;;;;;;;5.47;1.90;;;;;;;;;;5024423;28;20449;-59
2022/12/25 07:33:19;;;;;;;2.60;1.90;;;;;;;;;;5017972;28;20443;-58
2022/12/25 07:35:45;;;;;;;4.70;1.60;;;;;;;;;;5003700;28;20467;-55
2022/12/25 07:38:11;;;;;;;2.00;1.30;;;;;;;;;;5007070;28;20435;-58
2022/12/25 07:40:37;;;;;;;1.97;1.57;;;;;;;;;;5016399;28;20439;-56
2022/12/25 07:43:03;;;;;;;1.77;1.50;;;;;;;;;;5023067;28;21369;-56
2022/12/25 07:45:29;;;;;;;2.20;1.70;;;;;;;;;;4970243;28;20447;-58
2022/12/25 07:47:55;;;;;;;3.17;1.27;;;;;;;;;;5017350;28;20534;-58
2022/12/25 07:50:21;;;;;;;2.90;1.30;;;;;;;;;;4990819;28;20454;-58
2022/12/25 07:52:47;;;;;;;1.40;1.10;;;;;;;;;;5021399;28;20467;-57
2022/12/25 07:55:13;;;;;;;3.03;1.50;;;;;;;;;;5019966;28;20530;-58
2022/12/25 07:57:39;;;;;;;4.13;1.70;;;;;;;;;;5021621;28;20451;-58
2022/12/25 08:00:05;;;;;;;3.00;1.47;;;;;;;;;;4992632;28;20443;-57
2022/12/25 08:02:31;;;;;;;1.93;1.67;;;;;;;;;;5015646;28;20461;-56
2022/12/25 08:04:57;;;;;;;1.63;1.17;;;;;;;;;;4991437;28;20439;-57
2022/12/25 08:07:23;;;;;;;5.33;2.37;;;;;;;;;;5021559;28;20505;-57
2022/12/25 08:09:49;;;;;;;1.93;1.63;;;;;;;;;;5010647;28;20867;-57
2022/12/25 08:12:15;;;;;;;2.53;1.73;;;;;;;;;;5011697;28;20436;-57
2022/12/25 08:14:41;;;;;;;3.10;1.87;;;;;;;;;;4972233;28;20442;-56
2022/12/25 08:17:07;;;;;;;2.80;1.57;;;;;;;;;;5017920;28;20447;-58
2022/12/25 08:19:33;;;;;;;3.83;2.10;;;;;;;;;;5011078;28;20446;-58
2022/12/25 08:21:59;;;;;;;2.27;1.73;;;;;;;;;;5017492;28;20585;-59
2022/12/25 08:24:25;;;;;;;3.77;2.20;;;;;;;;;;5001015;28;20439;-55
2022/12/25 08:26:51;;;;;;;4.13;2.30;;;;;;;;;;5017701;28;20586;-57
2022/12/25 08:29:20;;;;;;;1.80;1.53;;;;;;;;;;4995360;28;20448;-57
2022/12/25 08:31:46;;;;;;;3.70;1.70;;;;;;;;;;5013159;28;20447;-57
2022/12/25 08:34:12;;;;;;;3.73;1.97;;;;;;;;;;5005136;28;20430;-55
2022/12/25 08:36:39;;;;;;;2.87;1.87;;;;;;;;;;5016387;28;21311;-58
2022/12/25 08:39:05;;;;;;;2.70;2.43;;;;;;;;;;5013962;28;20434;-58
2022/12/25 08:41:31;;;;;;;3.50;1.93;;;;;;;;;;5009354;28;20442;-56
2022/12/25 08:43:57;;;;;;;1.90;1.27;;;;;;;;;;5015114;28;20801;-58
2022/12/25 08:46:23;;;;;;;2.07;1.80;;;;;;;;;;5014670;28;20438;-57
2022/12/25 08:48:50;;;;;;;2.07;1.70;;;;;;;;;;5008630;28;20440;-58
2022/12/25 08:51:17;;;;;;;2.20;1.70;;;;;;;;;;4977921;28;20478;-58
2022/12/25 08:53:43;;;;;;;2.23;1.33;;;;;;;;;;5021177;28;20450;-58
2022/12/25 08:56:09;;;;;;;2.10;1.40;;;;;;;;;;4993405;28;20530;-59
2022/12/25 08:58:35;;;;;;;1.50;1.40;;;;;;;;;;5022825;28;20432;-58
2022/12/25 09:01:01;;;;;;;3.70;1.70;;;;;;;;;;4993472;28;20478;-58
2022/12/25 09:03:30;;;;;;;5.97;1.43;;;;;;;;;;5018941;28;20530;-57
2022/12/25 09:05:56;;;;;;;2.37;1.70;;;;;;;;;;4979073;28;20441;-58
2022/12/25 09:08:22;;;;;;;1.40;1.27;;;;;;;;;;5011452;28;20479;-58
2022/12/25 09:10:48;;;;;;;1.80;1.30;;;;;;;;;;5014014;28;20435;-58
2022/12/25 09:13:14;;;;;;;2.60;1.93;;;;;;;;;;4974440;28;20959;-58
2022/12/25 09:15:40;;;;;;;3.33;2.13;;;;;;;;;;4995479;28;20431;-58
2022/12/25 09:18:06;;;;;;;1.63;1.53;;;;;;;;;;5014716;28;20530;-57
2022/12/25 09:20:32;;;;;;;2.53;1.43;;;;;;;;;;4959016;28;20452;-56
2022/12/25 09:22:58;;;;;;;3.23;2.20;;;;;;;;;;5013243;28;20483;-58
2022/12/25 09:25:24;;;;;;;1.70;1.40;;;;;;;;;;4983041;28;21211;-58
2022/12/25 09:27:50;;;;;;;4.10;1.70;;;;;;;;;;4979141;28;20852;-59
2022/12/25 09:30:16;;;;;;;2.60;1.40;;;;;;;;;;5014813;28;20436;-60
2022/12/25 09:32:42;;;;;;;1.30;1.17;;;;;;;;;;4987790;28;20435;-55
2022/12/25 09:35:08;;;;;;;5.50;2.83;;;;;;;;;;5011344;28;20837;-57
2022/12/25 09:37:34;;;;;;;3.00;2.50;;;;;;;;;;4990213;28;20494;-59
2022/12/25 09:40:00;;;;;;;4.63;2.20;;;;;;;;;;5012031;28;20431;-59
2022/12/25 09:42:27;;;;;;;2.17;1.53;;;;;;;;;;5004006;28;20797;-57
2022/12/25 09:44:53;;;;;;;3.63;1.50;;;;;;;;;;5009951;28;20585;-58
2022/12/25 09:47:20;;;;;;;2.13;1.70;;;;;;;;;;5005685;28;20573;-58
2022/12/25 09:49:52;;;;;;;2.03;1.40;;;;;;;;;;5009355;28;20191;-56
2022/12/25 09:52:19;;;;;;;1.90;1.30;;;;;;;;;;4937701;28;21938;-56
2022/12/25 09:54:58;;;;;;;1.93;1.60;;;;;;;;;;5009319;28;20983;-57
2022/12/25 09:57:24;;;;;;;1.60;1.40;;;;;;;;;;4991710;28;20454;-57
2022/12/25 09:59:50;;;;;;;3.07;1.13;;;;;;;;;;5014374;28;20478;-55
2022/12/25 10:02:17;;;;;;;1.53;0.97;;;;;;;;;;4995386;28;21107;-56
2022/12/25 10:04:58;;;;;;;3.37;1.43;;;;;;;;;;5012101;28;20427;-56
2022/12/25 10:07:34;;;;;;;2.30;1.47;;;;;;;;;;4994951;28;20551;-57
2022/12/25 10:10:16;;;;;;;2.83;1.57;;;;;;;;;;5012675;28;20435;-57
2022/12/25 10:12:42;;;;;;;4.20;2.93;;;;;;;;;;4987864;28;20607;-55
2022/12/25 10:15:18;;;;;;;2.23;1.70;;;;;;;;;;5012500;28;21016;-55
2022/12/25 10:18:02;;;;;;;2.30;2.10;;;;;;;;;;5007072;28;20196;-56
2022/12/25 10:20:44;;;;;;;2.53;1.63;;;;;;;;;;5014011;28;20462;-56
2022/12/25 10:23:12;;;;;;;5.47;3.17;;;;;;;;;;4960188;28;20442;-55
2022/12/25 10:25:38;;;;;;;2.93;2.20;;;;;;;;;;5014665;28;20447;-58
2022/12/25 10:28:05;;;;;;;2.80;1.63;;;;;;;;;;5029856;28;20549;-57
2022/12/25 10:30:31;;;;;;;3.37;2.10;;;;;;;;;;5020906;28;21235;-57
2022/12/25 10:32:57;;;;;;;2.47;1.90;;;;;;;;;;5002837;28;20447;-57
2022/12/25 10:35:24;;;;;;;2.27;1.87;;;;;;;;;;5013114;28;20496;-55
2022/12/25 10:37:55;;;;;;;4.43;2.03;;;;;;;;;;5008827;28;20515;-56
2022/12/25 10:40:26;;;;;;;3.00;1.80;;;;;;;;;;5010633;28;20447;-57
2022/12/25 10:43:04;;;;;;;2.63;1.50;;;;;;;;;;5018176;28;20766;-56
2022/12/25 10:45:30;;;;;;;2.20;1.53;;;;;;;;;;5014725;28;20445;-55
2022/12/25 10:48:03;;;;;;;3.80;1.60;;;;;;;;;;5017795;28;20471;-54
2022/12/25 10:50:29;;;;;;;2.53;1.70;;;;;;;;;;5016743;28;20926;-55
2022/12/25 10:53:08;;;;;;;2.23;1.60;;;;;;;;;;4999056;28;21740;-57
2022/12/25 10:55:34;;;;;;;1.93;1.30;;;;;;;;;;5009889;28;20443;-55
2022/12/25 10:58:01;;;;;;;1.80;1.17;;;;;;;;;;5018009;28;20423;-55
2022/12/25 11:00:30;;;;;;;2.00;1.50;;;;;;;;;;4987334;28;20446;-54
2022/12/25 11:02:56;;;;;;;2.77;1.93;;;;;;;;;;5013035;28;20455;-54
2022/12/25 11:05:29;;;;;;;2.63;2.33;;;;;;;;;;4985653;28;20547;-57
2022/12/25 11:07:55;;;;;;;1.73;1.33;;;;;;;;;;5019172;28;20495;-56
2022/12/25 11:10:21;;;;;;;2.13;1.43;;;;;;;;;;4990617;28;20476;-55
2022/12/25 11:12:47;;;;;;;2.70;2.10;;;;;;;;;;5010549;28;20494;-56
2022/12/25 11:15:32;;;;;;;1.93;1.73;;;;;;;;;;4990476;28;20478;-56
2022/12/25 11:17:58;;;;;;;4.13;1.80;;;;;;;;;;4997528;28;20438;-57
2022/12/25 11:20:24;;;;;;;1.80;1.50;;;;;;;;;;4989369;28;20440;-57
2022/12/25 11:22:50;;;;;;;2.90;1.70;;;;;;;;;;4990875;28;20532;-57
2022/12/25 11:25:23;;;;;;;3.23;1.97;;;;;;;;;;4973912;28;20484;-56
2022/12/25 11:27:59;;;;;;;2.20;1.40;;;;;;;;;;5007289;28;20528;-56
2022/12/25 11:30:25;;;;;;;2.10;1.57;;;;;;;;;;5012103;28;20455;-56
2022/12/25 11:32:54;;;;;;;2.00;1.50;;;;;;;;;;5015766;28;20440;-56
2022/12/25 11:35:20;;;;;;;2.27;1.77;;;;;;;;;;4992619;28;20527;-56
2022/12/25 11:37:50;;;;;;;1.67;1.20;;;;;;;;;;5011767;28;20525;-58
2022/12/25 11:40:16;;;;;;;3.00;1.73;;;;;;;;;;4987942;28;20427;-56
2022/12/25 11:42:43;;;;;;;2.10;1.80;;;;;;;;;;5010071;28;20862;-56
2022/12/25 11:45:17;;;;;;;3.40;1.83;;;;;;;;;;4973199;28;20489;-56
2022/12/25 11:47:48;;;;;;;2.90;2.03;;;;;;;;;;5009961;28;20819;-58
2022/12/25 11:50:22;;;;;;;3.93;2.17;;;;;;;;;;5009309;28;21001;-57
2022/12/25 11:52:48;;;;;;;2.10;1.40;;;;;;;;;;5018823;28;20424;-57
2022/12/25 11:55:32;;;;;;;2.27;1.40;;;;;;;;;;4985817;28;20462;-58
2022/12/25 11:57:59;;;;;;;2.10;1.70;;;;;;;;;;5017037;28;20452;-58
2022/12/25 12:00:24;;;;;;;2.93;1.60;;;;;;;;;;4973155;28;20550;-58
2022/12/25 12:02:53;;;;;;;1.97;1.27;;;;;;;;;;5010405;28;21017;-59
2022/12/25 12:05:20;;;;;;;2.60;1.63;;;;;;;;;;4982496;28;20435;-58
2022/12/25 12:07:57;;;;;;;2.23;1.53;;;;;;;;;;5024575;28;20506;-58
2022/12/25 12:10:23;;;;;;;2.20;1.40;;;;;;;;;;5008526;28;20849;-60
2022/12/25 12:12:55;;;;;;;9.40;2.27;;;;;;;;;;5014240;28;20541;-58
2022/12/25 12:15:32;;;;;;;2.20;1.83;;;;;;;;;;4987534;28;20479;-56
2022/12/25 12:18:08;;;;;;;1.90;1.37;;;;;;;;;;5017919;28;20485;-59
2022/12/25 12:20:34;;;;;;;2.73;1.47;;;;;;;;;;4993377;28;20469;-56
2022/12/25 12:23:01;;;;;;;3.40;1.77;;;;;;;;;;5016465;28;20438;-58
2022/12/25 12:25:27;;;;;;;2.43;1.93;;;;;;;;;;4991983;28;20446;-57
2022/12/25 12:27:53;;;;;;;3.77;1.93;;;;;;;;;;5028762;28;20574;-57
2022/12/25 12:30:24;;;;;;;2.83;1.87;;;;;;;;;;5007561;28;21371;-55
2022/12/25 12:32:51;;;;;;;2.50;2.00;;;;;;;;;;5015398;28;20432;-57
2022/12/25 12:35:18;;;;;;;2.70;1.87;;;;;;;;;;4978039;28;20462;-56
2022/12/25 12:37:44;;;;;;;2.20;1.83;;;;;;;;;;4996118;28;20824;-57
2022/12/25 12:40:24;;;;;;;2.33;1.80;;;;;;;;;;5007449;28;20486;-58
2022/12/25 12:42:51;;;;;;;2.00;1.60;;;;;;;;;;5013357;28;20881;-57
2022/12/25 12:45:18;;;;;;;2.67;1.60;;;;;;;;;;4994286;28;20439;-56
2022/12/25 12:47:45;;;;;;;3.80;1.80;;;;;;;;;;5006944;28;20470;-57
2022/12/25 12:50:30;;;;;;;2.20;1.63;;;;;;;;;;4990235;28;20443;-58
2022/12/25 12:52:56;;;;;;;2.30;1.60;;;;;;;;;;5007402;28;20462;-58
2022/12/25 12:55:28;;;;;;;2.13;1.83;;;;;;;;;;5017549;28;20435;-59
2022/12/25 12:57:59;;;;;;;2.43;1.43;;;;;;;;;;5019649;28;20432;-58
2022/12/25 13:00:24;;;;;;;4.30;1.57;;;;;;;;;;5014670;28;20443;-56
2022/12/25 13:02:53;;;;;;;2.20;1.50;;;;;;;;;;5012426;28;20431;-57
2022/12/25 13:05:22;;;;;;;4.37;1.70;;;;;;;;;;4975652;28;20452;-58
2022/12/25 13:07:57;;;;;;;2.10;1.80;;;;;;;;;;4990527;28;20874;-58
2022/12/25 13:10:23;;;;;;;2.43;1.67;;;;;;;;;;4978479;28;20431;-58
2022/12/25 13:12:53;;;;;;;2.63;1.73;;;;;;;;;;5006398;28;20446;-58
2022/12/25 13:15:19;;;;;;;2.37;1.40;;;;;;;;;;5014866;28;20439;-59
2022/12/25 13:17:46;;;;;;;3.73;2.10;;;;;;;;;;4999850;28;20435;-59
2022/12/25 13:20:18;;;;;;;2.10;1.40;;;;;;;;;;4993307;28;20459;-58
2022/12/25 13:22:44;;;;;;;2.77;1.70;;;;;;;;;;5009839;28;21155;-58
2022/12/25 13:25:17;;;;;;;1.77;1.47;;;;;;;;;;4986320;28;20435;-58
2022/12/25 13:27:43;;;;;;;3.27;1.67;;;;;;;;;;5020594;28;21001;-61
2022/12/25 13:30:13;;;;;;;3.50;2.17;;;;;;;;;;5008477;28;20431;-58
2022/12/25 13:32:40;;;;;;;3.07;1.70;;;;;;;;;;5005517;28;20435;-57
2022/12/25 13:35:11;;;;;;;2.27;1.80;;;;;;;;;;5008309;28;20952;-58
2022/12/25 13:37:37;;;;;;;2.73;1.50;;;;;;;;;;5025052;28;20911;-57
2022/12/25 13:40:08;;;;;;;3.07;2.03;;;;;;;;;;4973527;28;20468;-58
2022/12/25 13:42:35;;;;;;;2.73;2.33;;;;;;;;;;5019657;28;20444;-58
2022/12/25 13:45:04;;;;;;;3.23;2.20;;;;;;;;;;4992622;28;20675;-57
2022/12/25 13:47:33;;;;;;;2.80;2.20;;;;;;;;;;5003091;28;20514;-58
2022/12/25 13:50:00;;;;;;;3.37;2.43;;;;;;;;;;4992653;28;20510;-57
2022/12/25 13:52:26;;;;;;;6.53;1.80;;;;;;;;;;5019217;28;20442;-59
2022/12/25 13:54:56;;;;;;;3.33;2.10;;;;;;;;;;5009094;28;20435;-56
2022/12/25 13:57:23;;;;;;;3.60;2.17;;;;;;;;;;5007703;28;20447;-59
2022/12/25 13:59:49;;;;;;;2.93;2.53;;;;;;;;;;5022212;28;21003;-55
2022/12/25 14:02:17;;;;;;;3.40;1.83;;;;;;;;;;5020714;28;20521;-56
2022/12/25 14:04:43;;;;;;;2.40;2.00;;;;;;;;;;5012197;28;20583;-58
2022/12/25 14:07:10;;;;;;;2.33;2.13;;;;;;;;;;5013561;28;20475;-57
2022/12/25 14:09:39;;;;;;;2.33;2.00;;;;;;;;;;5008948;28;20461;-56
2022/12/25 14:12:05;;;;;;;3.00;1.63;;;;;;;;;;5000835;28;20448;-58
2022/12/25 14:14:31;;;;;;;2.50;2.10;;;;;;;;;;5027130;28;20581;-58
2022/12/25 14:16:57;;;;;;;1.90;1.50;;;;;;;;;;5018066;28;20566;-59
2022/12/25 14:19:26;;;;;;;4.93;2.20;;;;;;;;;;5023406;28;20431;-58
2022/12/25 14:21:53;;;;;;;3.73;1.83;;;;;;;;;;5017086;28;20527;-58
2022/12/25 14:24:19;;;;;;;3.40;1.90;;;;;;;;;;5033753;28;20445;-57
2022/12/25 14:26:45;;;;;;;3.90;2.40;;;;;;;;;;5002876;28;20467;-58
2022/12/25 14:29:14;;;;;;;4.50;3.43;;;;;;;;;;5021072;28;20828;-57
2022/12/25 14:31:40;;;;;;;8.17;5.33;;;;;;;;;;4997702;28;20218;-58
2022/12/25 14:34:17;;;;;;;4.20;2.73;;;;;;;;;;5019962;28;20443;-58
2022/12/25 14:36:42;;;;;;;3.83;3.17;;;;;;;;;;5000579;28;20475;-57
2022/12/25 14:39:22;;;;;;;5.37;3.93;;;;;;;;;;5017456;28;20801;-58
2022/12/25 14:41:51;;;;;;;8.13;5.47;;;;;;;;;;5014733;28;20189;-58
2022/12/25 14:44:34;;;;;;;10.00;5.30;;;;;;;;;;5022854;28;20424;-58
2022/12/25 14:47:04;;;;;;;7.47;3.10;;;;;;;;;;4994753;28;20528;-57
2022/12/25 14:49:30;;;;;;;6.37;3.30;;;;;;;;;;5023922;28;20442;-57
2022/12/25 14:51:56;;;;;;;8.20;4.30;;;;;;;;;;5016156;28;20439;-57
2022/12/25 14:54:22;;;;;;;6.00;3.90;;;;;;;;;;5009581;28;20443;-58
2022/12/25 14:56:49;;;;;;;7.70;2.60;;;;;;;;;;4990520;28;20433;-58
2022/12/25 14:59:16;;;;;;;4.17;2.83;;;;;;;;;;5028239;28;20435;-60
2022/12/25 15:01:43;;;;;;;3.10;2.53;;;;;;;;;;5012217;28;20438;-58
2022/12/25 15:04:09;;;;;;;5.90;2.50;;;;;;;;;;5019570;28;20428;-59
2022/12/25 15:06:35;;;;;;;4.23;2.67;;;;;;;;;;4999229;28;20446;-57
2022/12/25 15:09:08;;;;;;;5.10;3.20;;;;;;;;;;5019343;28;20441;-58
2022/12/25 15:11:34;;;;;;;4.90;3.77;;;;;;;;;;5018609;28;20447;-59
2022/12/25 15:14:00;;;;;;;7.50;5.07;;;;;;;;;;5020624;28;20477;-57
2022/12/25 15:16:30;;;;;;;4.77;3.90;;;;;;;;;;5014343;28;20444;-58
2022/12/25 15:18:56;;;;;;;10.30;6.93;;;;;;;;;;5023593;28;20914;-58
2022/12/25 15:21:26;;;;;;;13.23;9.90;;;;;;;;;;4973882;28;20459;-56
2022/12/25 15:23:52;;;;;;;9.73;7.20;;;;;;;;;;5028644;28;20466;-58
2022/12/25 15:26:18;;;;;;;4.67;3.50;;;;;;;;;;4995225;28;20576;-57
2022/12/25 15:28:44;;;;;;;6.10;4.23;;;;;;;;;;5022338;28;20478;-56
2022/12/25 15:31:17;;;;;;;6.40;4.37;;;;;;;;;;4999336;28;20442;-57
2022/12/25 15:33:43;;;;;;;5.50;3.57;;;;;;;;;;5024622;28;20513;-56
2022/12/25 15:36:09;;;;;;;5.67;3.10;;;;;;;;;;4996793;28;20447;-58
2022/12/25 15:38:37;;;;;;;3.13;1.80;;;;;;;;;;5022581;28;20186;-58
2022/12/25 15:41:02;;;;;;;3.10;2.10;;;;;;;;;;4998044;28;20443;-59
2022/12/25 15:43:28;;;;;;;2.43;1.53;;;;;;;;;;5032702;28;20442;-58
2022/12/25 15:45:54;;;;;;;2.87;1.60;;;;;;;;;;5017435;28;20436;-57
2022/12/25 15:48:20;;;;;;;2.10;1.40;;;;;;;;;;5018291;28;20578;-57
2022/12/25 15:50:46;;;;;;;2.13;1.50;;;;;;;;;;5010781;28;20446;-57
2022/12/25 15:53:13;;;;;;;2.83;2.03;;;;;;;;;;5016414;28;20180;-56
2022/12/25 15:55:38;;;;;;;3.70;1.80;;;;;;;;;;4972123;28;21323;-57
2022/12/25 15:58:04;;;;;;;3.60;2.30;;;;;;;;;;5023932;28;20530;-56
2022/12/25 16:00:30;;;;;;;14.53;6.90;;;;;;;;;;5010974;28;20467;-58
2022/12/25 16:02:56;;;;;;;6.27;4.50;;;;;;;;;;5016781;28;20491;-58
2022/12/25 16:05:22;;;;;;;3.80;3.20;;;;;;;;;;4995629;28;20441;-57
2022/12/25 16:07:48;;;;;;;4.30;2.50;;;;;;;;;;5013612;28;20479;-57
2022/12/25 16:10:15;;;;;;;6.03;1.90;;;;;;;;;;5018007;28;20427;-56
2022/12/25 16:12:41;;;;;;;3.57;1.73;;;;;;;;;;4996592;28;20455;-56
2022/12/25 16:15:08;;;;;;;4.33;1.40;;;;;;;;;;5023907;28;20426;-55
2022/12/25 16:17:34;;;;;;;5.67;4.53;;;;;;;;;;4999277;28;20451;-57
2022/12/25 16:20:00;;;;;;;2.60;1.70;;;;;;;;;;5009500;28;20478;-57
2022/12/25 16:22:27;;;;;;;2.03;1.77;;;;;;;;;;5016126;28;20453;-57
2022/12/25 16:24:53;;;;;;;2.50;2.23;;;;;;;;;;5019307;28;20518;-56
2022/12/25 16:27:19;;;;;;;5.13;3.67;;;;;;;;;;4956007;28;21055;-55